Time;durP1;ratioP1;P1;durP2;ratioP2;P2;SDS_P1;SDS_P2;PMS_P1;PMS_P2;Temp;Humidity;BMP_temperature;BMP_pressure;BME280_temperature;BME280_humidity;BME280_pressure;Samples;Min_cycle;Max_cycle;Signal;HPM_P1;HPM_P2
2020/12/30 00:01:23;;;;;;;;;;;21.70;54.10;;;;;;5093175;28;1356;-68
2020/12/30 00:03:49;;;;;;;;;;;21.70;54.10;;;;;;5073251;28;1337;-67
2020/12/30 00:06:16;;;;;;;;;;;21.70;54.20;;;;;;5073212;28;1402;-67
2020/12/30 00:08:41;;;;;;;;;;;21.70;54.20;;;;;;5073243;28;1321;-67
2020/12/30 00:11:07;;;;;;;;;;;21.70;54.20;;;;;;5073341;28;1961;-66
2020/12/30 00:13:32;;;;;;;;;;;21.70;54.30;;;;;;5080658;28;1163;-66
2020/12/30 00:15:58;;;;;;;;;;;21.70;54.30;;;;;;5093347;28;1285;-66
2020/12/30 00:18:23;;;;;;;;;;;21.70;54.30;;;;;;5093475;28;1372;-66
2020/12/30 00:20:49;;;;;;;;;;;21.60;54.30;;;;;;5093370;28;1359;-67
2020/12/30 00:23:14;;;;;;;;;;;21.60;54.30;;;;;;5075301;28;1320;-66
2020/12/30 00:25:40;;;;;;;;;;;21.60;54.30;;;;;;5093134;28;1338;-66
2020/12/30 00:28:05;;;;;;;;;;;21.60;54.40;;;;;;5093044;28;1419;-66
2020/12/30 00:30:31;;;;;;;;;;;21.60;54.40;;;;;;5093545;28;1487;-66
2020/12/30 00:32:56;;;;;;;;;;;21.60;54.40;;;;;;5093221;28;1979;-66
2020/12/30 00:35:22;;;;;;;;;;;21.50;54.40;;;;;;5092912;28;1345;-65
2020/12/30 00:37:47;;;;;;;;;;;21.60;54.60;;;;;;5093327;28;1382;-65
2020/12/30 00:40:13;;;;;;;;;;;21.50;54.50;;;;;;5093248;28;1341;-66
2020/12/30 00:42:39;;;;;;;;;;;21.50;54.50;;;;;;5093327;28;1377;-66
2020/12/30 00:45:05;;;;;;;;;;;21.50;54.50;;;;;;5074905;28;1422;-66
2020/12/30 00:47:30;;;;;;;;;;;21.50;54.60;;;;;;5092935;28;1123;-68
2020/12/30 00:49:56;;;;;;;;;;;21.50;54.60;;;;;;5080383;28;1102;-68
2020/12/30 00:52:22;;;;;;;;;;;21.50;54.60;;;;;;5059470;28;1985;-68
2020/12/30 00:54:47;;;;;;;;;;;21.50;54.60;;;;;;5071552;28;1290;-67
2020/12/30 00:57:12;;;;;;;;;;;21.50;54.70;;;;;;5072522;28;1331;-68
2020/12/30 00:59:41;;;;;;;;;;;21.50;54.70;;;;;;5085691;28;1249;-67
2020/12/30 01:02:06;;;;;;;;;;;21.50;54.70;;;;;;5092802;28;1385;-68
2020/12/30 01:04:32;;;;;;;;;;;21.40;54.70;;;;;;5074588;28;1380;-66
2020/12/30 01:06:57;;;;;;;;;;;21.40;54.70;;;;;;5074926;28;1422;-66
2020/12/30 01:09:23;;;;;;;;;;;21.40;54.70;;;;;;5092819;28;1134;-66
2020/12/30 01:11:49;;;;;;;;;;;21.40;54.70;;;;;;5092887;28;1906;-66
2020/12/30 01:14:15;;;;;;;;;;;21.40;54.70;;;;;;5088978;28;1292;-67
2020/12/30 01:16:40;;;;;;;;;;;21.40;55.00;;;;;;5074750;28;1344;-66
2020/12/30 01:19:06;;;;;;;;;;;21.40;54.80;;;;;;5092574;28;1361;-68
2020/12/30 01:21:31;;;;;;;;;;;21.40;54.90;;;;;;5095612;28;1325;-67
2020/12/30 01:23:57;;;;;;;;;;;21.40;54.90;;;;;;5096709;28;1329;-67
2020/12/30 01:26:22;;;;;;;;;;;21.40;55.50;;;;;;5095263;28;1338;-67
2020/12/30 01:28:48;;;;;;;;;;;21.40;54.90;;;;;;5077557;28;1340;-67
2020/12/30 01:31:13;;;;;;;;;;;21.40;54.90;;;;;;5095183;28;1965;-66
2020/12/30 01:33:39;;;;;;;;;;;21.30;54.90;;;;;;5082614;28;1167;-69
2020/12/30 01:36:04;;;;;;;;;;;21.30;54.80;;;;;;5074840;28;1349;-67
2020/12/30 01:38:32;;;;;;;;;;;21.30;54.90;;;;;;5075189;28;1378;-66
2020/12/30 01:40:58;;;;;;;;;;;21.30;54.90;;;;;;5056744;28;1346;-67
2020/12/30 01:43:24;;;;;;;;;;;21.30;54.90;;;;;;5075054;28;1100;-67
2020/12/30 01:45:49;;;;;;;;;;;21.30;55.00;;;;;;5074524;28;1298;-66
2020/12/30 01:48:16;;;;;;;;;;;21.30;55.00;;;;;;5074752;28;1294;-70
2020/12/30 01:50:41;;;;;;;;;;;21.30;55.00;;;;;;5073452;28;1338;-69
2020/12/30 01:53:07;;;;;;;;;;;21.30;55.00;;;;;;5087657;28;1906;-68
2020/12/30 01:55:33;;;;;;;;;;;21.30;55.00;;;;;;5074839;28;1303;-66
2020/12/30 01:57:58;;;;;;;;;;;21.30;55.00;;;;;;5056664;28;1402;-66
2020/12/30 02:00:24;;;;;;;;;;;21.20;55.00;;;;;;5094009;28;1346;-66
2020/12/30 02:02:54;;;;;;;;;;;21.20;55.00;;;;;;5094736;28;1436;-67
2020/12/30 02:05:19;;;;;;;;;;;21.20;55.10;;;;;;5060838;28;1403;-67
2020/12/30 02:07:45;;;;;;;;;;;21.20;55.10;;;;;;5073408;28;1399;-66
2020/12/30 02:10:10;;;;;;;;;;;21.20;55.10;;;;;;5073277;28;1571;-66
2020/12/30 02:12:36;;;;;;;;;;;21.20;55.10;;;;;;5074402;28;1893;-66
2020/12/30 02:15:01;;;;;;;;;;;21.20;55.10;;;;;;5076042;28;1376;-67
2020/12/30 02:17:27;;;;;;;;;;;21.20;55.10;;;;;;5094431;28;1333;-66
2020/12/30 02:19:52;;;;;;;;;;;21.20;55.10;;;;;;5094562;28;1326;-67
2020/12/30 02:22:20;;;;;;;;;;;21.20;55.20;;;;;;5094500;28;1299;-68
2020/12/30 02:24:46;;;;;;;;;;;21.20;55.10;;;;;;5073463;28;592943;-67
2020/12/30 02:27:11;;;;;;;;;;;21.20;55.10;;;;;;5095426;28;1329;-66
2020/12/30 02:29:37;;;;;;;;;;;21.20;55.10;;;;;;5095725;28;1428;-67
2020/12/30 02:32:02;;;;;;;;;;;21.20;55.10;;;;;;5095263;28;1975;-67
2020/12/30 02:34:28;;;;;;;;;;;21.20;55.00;;;;;;5077206;28;1369;-68
2020/12/30 02:36:53;;;;;;;;;;;21.20;55.00;;;;;;5095272;28;1282;-67
2020/12/30 02:39:19;;;;;;;;;;;21.20;55.00;;;;;;5095455;28;1230;-66
2020/12/30 02:41:45;;;;;;;;;;;21.20;54.90;;;;;;5095307;28;1349;-66
2020/12/30 02:44:10;;;;;;;;;;;21.30;54.90;;;;;;5077091;28;1318;-66
2020/12/30 02:46:36;;;;;;;;;;;21.30;54.80;;;;;;5094914;28;1380;-66
2020/12/30 02:49:01;;;;;;;;;;;21.40;54.90;;;;;;5060502;28;1352;-66
2020/12/30 02:51:27;;;;;;;;;;;21.50;54.70;;;;;;5082464;28;1918;-66
2020/12/30 02:53:52;;;;;;;;;;;21.60;54.60;;;;;;5074917;28;1326;-66
2020/12/30 02:56:18;;;;;;;;;;;21.60;54.40;;;;;;5074688;28;1306;-69
2020/12/30 02:58:46;;;;;;;;;;;21.70;54.20;;;;;;5073691;28;1289;-67
2020/12/30 03:01:12;;;;;;;;;;;21.80;53.90;;;;;;5073199;28;1103;-66
2020/12/30 03:03:37;;;;;;;;;;;21.90;53.70;;;;;;5094006;28;1374;-66
2020/12/30 03:06:03;;;;;;;;;;;22.10;53.50;;;;;;5094714;28;1306;-66
2020/12/30 03:08:28;;;;;;;;;;;22.20;53.30;;;;;;5094769;28;1366;-67
2020/12/30 03:10:54;;;;;;;;;;;22.20;53.10;;;;;;5094940;28;1910;-66
2020/12/30 03:13:19;;;;;;;;;;;22.30;53.00;;;;;;5056909;28;1286;-66
2020/12/30 03:15:45;;;;;;;;;;;22.40;52.80;;;;;;5094335;28;1310;-66
2020/12/30 03:18:10;;;;;;;;;;;22.50;52.60;;;;;;5094566;28;1419;-68
2020/12/30 03:20:36;;;;;;;;;;;22.50;52.40;;;;;;5094657;28;1326;-67
2020/12/30 03:23:01;;;;;;;;;;;22.60;52.90;;;;;;5094396;28;1134;-66
2020/12/30 03:25:27;;;;;;;;;;;22.60;52.20;;;;;;5094307;28;1368;-66
2020/12/30 03:27:52;;;;;;;;;;;22.70;52.10;;;;;;5094324;28;1375;-67
2020/12/30 03:30:18;;;;;;;;;;;22.70;52.00;;;;;;5094352;28;1278;-67
2020/12/30 03:32:43;;;;;;;;;;;22.80;51.90;;;;;;5094361;28;1955;-66
2020/12/30 03:35:09;;;;;;;;;;;22.80;51.90;;;;;;5094031;28;1534;-70
2020/12/30 03:37:34;;;;;;;;;;;22.80;51.80;;;;;;5089498;28;1277;-68
2020/12/30 03:40:00;;;;;;;;;;;22.90;51.70;;;;;;5074126;28;1171;-68
2020/12/30 03:42:25;;;;;;;;;;;22.90;51.70;;;;;;5073933;28;1095;-68
2020/12/30 03:44:50;;;;;;;;;;;22.90;51.60;;;;;;5071930;28;1311;-67
2020/12/30 03:47:16;;;;;;;;;;;23.00;51.60;;;;;;5071075;28;1361;-66
2020/12/30 03:49:42;;;;;;;;;;;23.00;51.50;;;;;;5084577;28;1338;-66
2020/12/30 03:52:07;;;;;;;;;;;23.00;51.40;;;;;;5075709;28;1894;-66
2020/12/30 03:54:33;;;;;;;;;;;23.10;51.40;;;;;;5073777;28;1372;-66
2020/12/30 03:56:58;;;;;;;;;;;23.10;51.40;;;;;;5072345;28;1113;-66
2020/12/30 03:59:24;;;;;;;;;;;23.10;51.40;;;;;;5083659;28;1082;-68
2020/12/30 04:01:49;;;;;;;;;;;23.10;51.90;;;;;;5092785;28;1323;-68
2020/12/30 04:04:15;;;;;;;;;;;23.20;51.30;;;;;;5093563;28;1276;-69
2020/12/30 04:06:43;;;;;;;;;;;23.20;51.30;;;;;;5093521;28;1302;-69
2020/12/30 04:09:08;;;;;;;;;;;23.20;51.20;;;;;;5093896;28;1357;-70
2020/12/30 04:11:34;;;;;;;;;;;23.20;51.20;;;;;;5093643;28;1897;-70
2020/12/30 04:13:59;;;;;;;;;;;23.30;51.20;;;;;;5071561;28;1193;-69
2020/12/30 04:16:25;;;;;;;;;;;23.20;51.10;;;;;;5093327;28;1230;-69
2020/12/30 04:18:51;;;;;;;;;;;23.30;51.10;;;;;;5093562;28;1333;-69
2020/12/30 04:21:17;;;;;;;;;;;23.30;51.10;;;;;;5093816;28;1298;-70
2020/12/30 04:23:42;;;;;;;;;;;23.30;51.00;;;;;;5093373;28;1101;-69
2020/12/30 04:26:08;;;;;;;;;;;23.30;51.00;;;;;;5093158;28;1361;-69
2020/12/30 04:28:33;;;;;;;;;;;23.30;51.00;;;;;;5093374;28;1150;-69
2020/12/30 04:30:59;;;;;;;;;;;23.40;51.00;;;;;;5093312;28;1910;-70
2020/12/30 04:33:24;;;;;;;;;;;23.40;51.00;;;;;;5093221;28;1106;-69
2020/12/30 04:35:50;;;;;;;;;;;23.40;51.00;;;;;;5093042;28;1371;-67
2020/12/30 04:38:15;;;;;;;;;;;23.40;51.00;;;;;;5093422;28;1360;-69
2020/12/30 04:40:41;;;;;;;;;;;23.40;50.90;;;;;;5093266;28;1102;-69
2020/12/30 04:43:10;;;;;;;;;;;23.40;50.90;;;;;;5075013;28;1178;-69
2020/12/30 04:45:35;;;;;;;;;;;23.40;50.90;;;;;;5092860;28;1284;-70
2020/12/30 04:48:01;;;;;;;;;;;23.40;50.80;;;;;;5092676;28;1161;-69
2020/12/30 04:50:27;;;;;;;;;;;23.40;50.80;;;;;;5070886;28;1152;-69
2020/12/30 04:52:53;;;;;;;;;;;23.40;50.90;;;;;;5072867;28;1906;-69
2020/12/30 04:55:22;;;;;;;;;;;23.40;50.90;;;;;;5070352;28;1288;-69
2020/12/30 04:57:51;;;;;;;;;;;23.40;50.90;;;;;;5072525;28;1335;-70
2020/12/30 05:00:16;;;;;;;;;;;23.40;50.90;;;;;;5090795;28;1342;-69
2020/12/30 05:02:47;;;;;;;;;;;23.40;50.90;;;;;;5093060;28;1067;-69
2020/12/30 05:05:12;;;;;;;;;;;23.40;50.90;;;;;;5092563;28;1315;-69
2020/12/30 05:07:38;;;;;;;;;;;23.40;50.90;;;;;;5074785;28;1359;-69
2020/12/30 05:10:03;;;;;;;;;;;23.50;51.00;;;;;;5074638;28;1177;-69
2020/12/30 05:12:29;;;;;;;;;;;23.50;51.00;;;;;;5091072;28;1902;-69
2020/12/30 05:14:54;;;;;;;;;;;23.40;50.90;;;;;;5090645;28;1338;-68
2020/12/30 05:17:20;;;;;;;;;;;23.40;50.90;;;;;;5092735;28;1118;-70
2020/12/30 05:19:45;;;;;;;;;;;23.40;51.00;;;;;;5092780;28;1115;-69
2020/12/30 05:22:20;;;;;;;;;;;23.40;51.00;;;;;;5092916;28;1338;-69
2020/12/30 05:24:47;;;;;;;;;;;23.40;51.00;;;;;;5092134;28;1364;-69
2020/12/30 05:27:13;;;;;;;;;;;23.40;51.10;;;;;;5131198;22;3682;-68
2020/12/30 05:29:51;;;;;;;;;;;23.40;51.10;;;;;;5080353;28;1189;-68
2020/12/30 05:32:16;;;;;;;;;;;23.40;51.10;;;;;;5074482;28;1965;-68
2020/12/30 05:34:42;;;;;;;;;;;23.40;51.20;;;;;;5073772;28;1119;-68
2020/12/30 05:37:09;;;;;;;;;;;23.30;51.80;;;;;;5073729;28;1292;-68
2020/12/30 05:39:35;;;;;;;;;;;23.30;51.30;;;;;;5074342;28;1306;-68
2020/12/30 05:42:09;;;;;;;;;;;23.30;51.30;;;;;;5074809;28;1174;-68
2020/12/30 05:44:35;;;;;;;;;;;23.30;51.40;;;;;;5092169;28;1133;-68
2020/12/30 05:47:13;;;;;;;;;;;23.30;51.50;;;;;;5092052;28;1176;-69
2020/12/30 05:49:38;;;;;;;;;;;23.20;51.50;;;;;;5091657;28;1254;-68
2020/12/30 05:52:17;;;;;;;;;;;23.20;51.50;;;;;;5074037;28;1949;-68
2020/12/30 05:55:01;;;;;;;;;;;23.20;51.60;;;;;;5091617;28;1091;-69
2020/12/30 05:57:27;;;;;;;;;;;23.20;51.70;;;;;;5091474;28;1274;-68
2020/12/30 05:59:56;;;;;;;;;;;23.10;51.70;;;;;;5074071;28;1351;-68
2020/12/30 06:02:22;;;;;;;;;;;23.10;51.70;;;;;;5053924;28;1564;-69
2020/12/30 06:04:49;;;;;;;;;;;23.10;51.80;;;;;;5069072;28;1096;-68
2020/12/30 06:07:14;;;;;;;;;;;23.00;51.80;;;;;;5093471;28;1192;-68
2020/12/30 06:09:40;;;;;;;;;;;23.00;51.90;;;;;;5061064;28;2160;-67
2020/12/30 06:12:06;;;;;;;;;;;23.00;52.00;;;;;;5081842;28;1918;-67
2020/12/30 06:14:31;;;;;;;;;;;23.00;52.00;;;;;;5092248;28;1094;-67
2020/12/30 06:16:59;;;;;;;;;;;22.90;52.00;;;;;;5094118;28;1254;-67
2020/12/30 06:19:25;;;;;;;;;;;22.90;52.10;;;;;;5094218;28;1146;-67
2020/12/30 06:21:50;;;;;;;;;;;22.90;52.20;;;;;;5076570;28;1334;-69
2020/12/30 06:24:16;;;;;;;;;;;22.90;52.20;;;;;;5075793;28;1328;-72
2020/12/30 06:26:42;;;;;;;;;;;22.90;52.20;;;;;;5075691;28;1399;-71
2020/12/30 06:29:14;;;;;;;;;;;22.80;52.30;;;;;;5075969;28;1277;-71
2020/12/30 06:31:43;;;;;;;;;;;22.80;52.30;;;;;;5076156;28;1910;-69
2020/12/30 06:34:09;;;;;;;;;;;22.80;52.30;;;;;;5074860;28;1317;-68
2020/12/30 06:36:35;;;;;;;;;;;22.80;52.40;;;;;;5093879;28;1619;-68
2020/12/30 06:39:01;;;;;;;;;;;22.80;52.40;;;;;;5093424;28;1352;-67
2020/12/30 06:41:35;;;;;;;;;;;22.70;52.40;;;;;;5075780;28;1396;-68
2020/12/30 06:44:00;;;;;;;;;;;22.70;52.50;;;;;;5074950;28;1386;-66
2020/12/30 06:46:25;;;;;;;;;;;22.70;52.60;;;;;;5093949;28;1301;-67
2020/12/30 06:48:54;;;;;;;;;;;22.70;52.60;;;;;;5075603;28;1421;-67
2020/12/30 06:51:20;;;;;;;;;;;22.70;52.60;;;;;;5075484;28;1951;-67
2020/12/30 06:53:49;;;;;;;;;;;22.60;52.60;;;;;;5093256;28;1293;-67
2020/12/30 06:56:15;;;;;;;;;;;22.60;52.70;;;;;;5075431;28;1372;-69
2020/12/30 06:58:47;;;;;;;;;;;22.60;52.70;;;;;;5094104;28;1368;-69
2020/12/30 07:01:13;;;;;;;;;;;22.60;52.80;;;;;;5093429;28;1290;-69
2020/12/30 07:03:39;;;;;;;;;;;22.50;47.40;;;;;;5092060;28;1384;-69
2020/12/30 07:06:23;;;;;;;;;;;22.40;43.50;;;;;;5074480;28;1278;-69
2020/12/30 07:08:49;;;;;;;;;;;22.30;40.10;;;;;;5093301;28;1338;-69
2020/12/30 07:11:33;;;;;;;;;;;22.10;40.50;;;;;;5093194;28;1891;-69
2020/12/30 07:13:59;;;;;;;;;;;22.10;41.20;;;;;;5092967;28;1106;-69
2020/12/30 07:16:24;;;;;;;;;;;22.00;42.80;;;;;;5093318;28;1272;-69
2020/12/30 07:18:50;;;;;;;;;;;22.00;44.10;;;;;;5093860;28;1315;-69
2020/12/30 07:21:16;;;;;;;;;;;21.90;44.80;;;;;;5076272;28;1306;-69
2020/12/30 07:23:42;;;;;;;;;;;21.90;45.40;;;;;;5048933;28;1239;-68
2020/12/30 07:26:17;;;;;;;;;;;21.90;45.90;;;;;;5089449;28;1323;-68
2020/12/30 07:28:43;;;;;;;;;;;21.90;46.20;;;;;;5093149;28;1058;-68
2020/12/30 07:31:09;;;;;;;;;;;21.90;46.60;;;;;;5068943;28;1969;-68
2020/12/30 07:33:38;;;;;;;;;;;21.90;46.90;;;;;;5083787;28;1289;-67
2020/12/30 07:36:04;;;;;;;;;;;21.90;47.20;;;;;;5091992;28;1363;-67
2020/12/30 07:38:30;;;;;;;;;;;21.90;47.50;;;;;;5092344;28;1311;-67
2020/12/30 07:41:03;;;;;;;;;;;22.00;47.80;;;;;;5074864;28;1448;-67
2020/12/30 07:43:28;;;;;;;;;;;21.90;47.90;;;;;;5074112;28;1341;-67
2020/12/30 07:45:53;;;;;;;;;;;21.90;48.10;;;;;;5092417;28;1352;-68
2020/12/30 07:48:22;;;;;;;;;;;21.90;48.20;;;;;;5092676;28;1377;-67
2020/12/30 07:50:50;;;;;;;;;;;21.90;48.50;;;;;;5092987;28;1248;-67
2020/12/30 07:53:16;;;;;;;;;;;21.90;48.70;;;;;;5091690;28;1973;-70
2020/12/30 07:55:42;;;;;;;;;;;21.90;48.80;;;;;;5092176;28;1373;-68
2020/12/30 07:58:08;;;;;;;;;;;21.90;49.00;;;;;;5090572;28;1295;-68
2020/12/30 08:00:33;;;;;;;;;;;21.90;49.20;;;;;;5075044;28;1685;-70
2020/12/30 08:02:59;;;;;;;;;;;21.90;49.40;;;;;;5093070;28;1556;-70
2020/12/30 08:05:24;;;;;;;;;;;21.80;49.40;;;;;;5074029;28;2349;-70
2020/12/30 08:07:49;;;;;;;;;;;21.90;49.70;;;;;;5074805;28;1295;-68
2020/12/30 08:10:20;;;;;;;;;;;21.80;49.90;;;;;;5092534;28;1098;-70
2020/12/30 08:12:45;;;;;;;;;;;21.90;50.10;;;;;;5089416;28;1959;-69
2020/12/30 08:15:11;;;;;;;;;;;21.90;50.10;;;;;;5092620;28;1364;-69
2020/12/30 08:17:36;;;;;;;;;;;22.00;50.10;;;;;;5074336;28;1352;-70
2020/12/30 08:20:02;;;;;;;;;;;22.10;50.00;;;;;;5074679;28;1277;-69
2020/12/30 08:22:28;;;;;;;;;;;22.10;49.90;;;;;;5074953;28;1572;-69
2020/12/30 08:24:54;;;;;;;;;;;22.20;49.80;;;;;;5074112;28;1425;-68
2020/12/30 08:27:20;;;;;;;;;;;22.30;49.70;;;;;;5074147;28;1332;-69
2020/12/30 08:29:46;;;;;;;;;;;22.40;49.60;;;;;;5089024;28;1329;-69
2020/12/30 08:32:14;;;;;;;;;;;22.50;49.50;;;;;;5086325;28;1906;-69
2020/12/30 08:34:41;;;;;;;;;;;22.60;49.40;;;;;;5092295;28;1341;-69
2020/12/30 08:37:10;;;;;;;;;;;22.60;49.30;;;;;;5074039;28;1302;-69
2020/12/30 08:39:40;;;;;;;;;;;22.60;49.20;;;;;;5092795;28;1344;-69
2020/12/30 08:42:07;;;;;;;;;;;22.70;49.10;;;;;;5074275;28;1277;-69
2020/12/30 08:44:33;;;;;;;;;;;22.70;49.10;;;;;;5092353;28;1283;-69
2020/12/30 08:46:58;;;;;;;;;;;22.80;49.10;;;;;;5091871;28;1282;-69
2020/12/30 08:49:24;;;;;;;;;;;22.80;49.10;;;;;;5074321;28;1264;-69
2020/12/30 08:51:50;;;;;;;;;;;22.80;49.10;;;;;;5074647;28;1910;-69
2020/12/30 08:54:16;;;;;;;;;;;22.80;49.10;;;;;;5092206;28;1322;-69
2020/12/30 08:56:42;;;;;;;;;;;22.80;49.10;;;;;;5092453;28;1359;-67
2020/12/30 08:59:08;;;;;;;;;;;22.80;49.10;;;;;;5080618;28;1262;-68
2020/12/30 09:01:33;;;;;;;;;;;22.80;49.20;;;;;;5092154;28;1313;-68
2020/12/30 09:04:11;;;;;;;;;;;22.80;49.20;;;;;;5092093;28;1395;-67
2020/12/30 09:06:37;;;;;;;;;;;22.80;49.30;;;;;;5074001;28;1321;-69
2020/12/30 09:09:09;;;;;;;;;;;22.80;49.30;;;;;;5074450;28;1325;-70
2020/12/30 09:11:35;;;;;;;;;;;22.80;49.40;;;;;;5092184;28;1902;-69
2020/12/30 09:14:11;;;;;;;;;;;22.80;49.40;;;;;;5091875;28;1177;-69
2020/12/30 09:16:49;;;;;;;;;;;22.80;49.50;;;;;;5073893;28;1418;-69
2020/12/30 09:19:18;;;;;;;;;;;22.80;49.50;;;;;;5074214;28;1304;-69
2020/12/30 09:21:44;;;;;;;;;;;22.80;49.60;;;;;;5092122;28;1390;-69
2020/12/30 09:24:13;;;;;;;;;;;22.70;49.60;;;;;;5091519;28;1281;-69
2020/12/30 09:26:38;;;;;;;;;;;22.70;49.70;;;;;;5091904;28;1356;-69
2020/12/30 09:29:03;;;;;;;;;;;22.70;49.80;;;;;;5068495;28;1306;-67
2020/12/30 09:31:29;;;;;;;;;;;22.70;49.80;;;;;;5081001;28;1959;-70
2020/12/30 09:33:54;;;;;;;;;;;22.70;49.90;;;;;;5089868;28;1275;-70
2020/12/30 09:36:20;;;;;;;;;;;22.70;50.00;;;;;;5085968;28;1373;-70
2020/12/30 09:38:53;;;;;;;;;;;22.60;50.00;;;;;;5091186;28;1258;-69
2020/12/30 09:41:19;;;;;;;;;;;22.60;50.10;;;;;;5073528;28;1364;-69
2020/12/30 09:43:45;;;;;;;;;;;22.60;50.20;;;;;;5094394;28;1217;-70
2020/12/30 09:46:10;;;;;;;;;;;22.60;50.30;;;;;;5094721;28;1357;-70
2020/12/30 09:48:36;;;;;;;;;;;22.50;50.30;;;;;;5095310;28;1270;-68
2020/12/30 09:51:01;;;;;;;;;;;22.50;50.30;;;;;;5095012;28;1152;-68
2020/12/30 09:53:27;;;;;;;;;;;22.50;50.40;;;;;;5076481;28;1902;-68
2020/12/30 09:55:52;;;;;;;;;;;22.50;50.40;;;;;;5094241;28;1373;-69
2020/12/30 09:58:18;;;;;;;;;;;22.50;50.50;;;;;;5049426;28;1353;-70
2020/12/30 10:00:44;;;;;;;;;;;22.50;50.50;;;;;;5094795;28;999;-70
2020/12/30 10:03:09;;;;;;;;;;;22.40;50.60;;;;;;5093526;28;1047;-70
2020/12/30 10:05:35;;;;;;;;;;;22.40;50.60;;;;;;5093413;28;1295;-69
2020/12/30 10:08:00;;;;;;;;;;;22.40;50.70;;;;;;5093403;28;1146;-70
2020/12/30 10:10:26;;;;;;;;;;;22.40;50.70;;;;;;5076076;28;1063;-69
2020/12/30 10:12:51;;;;;;;;;;;22.40;50.80;;;;;;5075874;28;1961;-69
2020/12/30 10:15:20;;;;;;;;;;;22.40;50.80;;;;;;5094693;28;1292;-69
2020/12/30 10:17:45;;;;;;;;;;;22.30;50.90;;;;;;5077742;28;1186;-70
2020/12/30 10:20:11;;;;;;;;;;;22.30;50.90;;;;;;5076985;28;1075;-70
2020/12/30 10:22:36;;;;;;;;;;;22.30;51.00;;;;;;5095456;28;1059;-70
2020/12/30 10:25:02;;;;;;;;;;;22.30;51.10;;;;;;5076792;28;1265;-70
2020/12/30 10:27:28;;;;;;;;;;;22.30;51.10;;;;;;5077030;28;1099;-70
2020/12/30 10:29:53;;;;;;;;;;;22.30;51.20;;;;;;5077462;28;1074;-69
2020/12/30 10:32:19;;;;;;;;;;;22.30;51.20;;;;;;5076892;28;1969;-70
2020/12/30 10:34:44;;;;;;;;;;;22.30;51.20;;;;;;5094785;28;1325;-70
2020/12/30 10:37:10;;;;;;;;;;;22.30;51.20;;;;;;5094353;28;1292;-70
2020/12/30 10:39:35;;;;;;;;;;;22.30;51.20;;;;;;5076934;28;1178;-69
2020/12/30 10:42:01;;;;;;;;;;;22.30;51.10;;;;;;5094431;28;1071;-70
2020/12/30 10:44:26;;;;;;;;;;;22.30;51.10;;;;;;5094616;28;1375;-70
2020/12/30 10:46:55;;;;;;;;;;;22.40;51.10;;;;;;5075663;28;1396;-69
2020/12/30 10:49:21;;;;;;;;;;;22.40;51.00;;;;;;5077262;28;1087;-70
2020/12/30 10:51:46;;;;;;;;;;;22.40;50.90;;;;;;5075810;28;1902;-70
2020/12/30 10:54:12;;;;;;;;;;;22.40;50.90;;;;;;5075065;28;1296;-69
2020/12/30 10:56:38;;;;;;;;;;;22.50;50.90;;;;;;5076184;28;1302;-70
2020/12/30 10:59:04;;;;;;;;;;;22.50;50.90;;;;;;5076582;28;1170;-70
2020/12/30 11:01:29;;;;;;;;;;;22.50;50.90;;;;;;5093849;28;1309;-69
2020/12/30 11:03:55;;;;;;;;;;;22.50;50.80;;;;;;5094267;28;1146;-70
2020/12/30 11:06:20;;;;;;;;;;;22.50;50.90;;;;;;5094250;28;1352;-69
2020/12/30 11:08:47;;;;;;;;;;;22.50;50.90;;;;;;5094471;28;1289;-69
2020/12/30 11:11:12;;;;;;;;;;;22.50;50.90;;;;;;5076529;28;1961;-69
2020/12/30 11:13:38;;;;;;;;;;;22.50;50.90;;;;;;5091115;28;1158;-69
2020/12/30 11:16:04;;;;;;;;;;;22.50;50.90;;;;;;5094380;28;1372;-69
2020/12/30 11:18:29;;;;;;;;;;;22.50;50.90;;;;;;5094539;28;1067;-69
2020/12/30 11:20:55;;;;;;;;;;;22.50;51.00;;;;;;5075979;28;1294;-69
2020/12/30 11:23:20;;;;;;;;;;;22.40;51.00;;;;;;5094357;28;1091;-70
2020/12/30 11:28:19;;;;;;;;;;;22.40;51.10;;;;;;5065239;28;1593;-66
2020/12/30 11:30:44;;;;;;;;;;;22.40;51.10;;;;;;5073773;28;1155;-66
2020/12/30 11:33:10;;;;;;;;;;;22.40;51.20;;;;;;5073890;28;1913;-66
2020/12/30 11:35:35;;;;;;;;;;;22.40;51.20;;;;;;5073275;28;1100;-66
2020/12/30 11:38:01;;;;;;;;;;;22.40;51.20;;;;;;5053186;28;1365;-66
2020/12/30 11:40:26;;;;;;;;;;;22.40;51.30;;;;;;5035453;28;1604;-66
2020/12/30 11:42:52;;;;;;;;;;;22.40;51.30;;;;;;5053124;28;1034;-66
2020/12/30 11:45:18;;;;;;;;;;;22.40;51.40;;;;;;5035226;28;1317;-67
2020/12/30 11:47:43;;;;;;;;;;;22.40;51.30;;;;;;5052649;28;1364;-67
2020/12/30 11:50:09;;;;;;;;;;;22.40;51.30;;;;;;5053085;28;1217;-67
2020/12/30 11:52:34;;;;;;;;;;;22.40;51.30;;;;;;5035496;28;1965;-68
2020/12/30 11:55:00;;;;;;;;;;;22.40;51.30;;;;;;5045870;28;1874;-66
2020/12/30 11:57:28;;;;;;;;;;;22.40;51.30;;;;;;5027424;28;1383;-67
2020/12/30 11:59:54;;;;;;;;;;;22.40;51.30;;;;;;5051533;28;1357;-67
2020/12/30 12:02:19;;;;;;;;;;;22.40;51.30;;;;;;5052052;28;1380;-67
2020/12/30 12:04:45;;;;;;;;;;;22.40;51.20;;;;;;5052017;28;1260;-67
2020/12/30 12:07:10;;;;;;;;;;;22.40;51.20;;;;;;5034978;28;1326;-67
2020/12/30 12:09:36;;;;;;;;;;;22.40;51.20;;;;;;5052750;28;1335;-66
2020/12/30 12:12:01;;;;;;;;;;;22.50;51.30;;;;;;5053112;28;1910;-67
2020/12/30 12:14:27;;;;;;;;;;;22.40;51.20;;;;;;5052359;28;1139;-67
2020/12/30 12:16:52;;;;;;;;;;;22.40;51.20;;;;;;5052655;28;1323;-66
2020/12/30 12:19:18;;;;;;;;;;;22.40;51.30;;;;;;5052243;28;1563;-67
2020/12/30 12:21:44;;;;;;;;;;;22.40;51.30;;;;;;5052720;28;1076;-66
2020/12/30 12:24:10;;;;;;;;;;;22.40;51.30;;;;;;5052438;28;1338;-66
2020/12/30 12:26:35;;;;;;;;;;;22.40;51.40;;;;;;5052293;28;1422;-66
2020/12/30 12:29:01;;;;;;;;;;;22.40;51.40;;;;;;5051759;28;1314;-67
2020/12/30 12:31:26;;;;;;;;;;;22.40;51.40;;;;;;5052825;28;1906;-67
2020/12/30 12:33:52;;;;;;;;;;;22.40;51.40;;;;;;5052331;28;1327;-67
2020/12/30 12:36:19;;;;;;;;;;;22.40;51.50;;;;;;5052107;28;1319;-67
2020/12/30 12:38:45;;;;;;;;;;;22.30;51.50;;;;;;5053244;28;1312;-67
2020/12/30 12:41:11;;;;;;;;;;;22.30;51.50;;;;;;5034671;28;1108;-66
2020/12/30 12:43:37;;;;;;;;;;;22.30;51.60;;;;;;5034423;28;1285;-67
2020/12/30 12:46:11;;;;;;;;;;;22.30;51.60;;;;;;5033969;28;1353;-67
2020/12/30 12:48:36;;;;;;;;;;;22.30;51.70;;;;;;5034091;28;1379;-67
2020/12/30 12:51:02;;;;;;;;;;;22.30;51.70;;;;;;5052467;28;1270;-67
2020/12/30 12:53:27;;;;;;;;;;;22.20;51.70;;;;;;5052286;28;1957;-67
2020/12/30 12:55:52;;;;;;;;;;;22.30;51.80;;;;;;5051716;28;1373;-66
2020/12/30 12:58:18;;;;;;;;;;;22.20;51.80;;;;;;5052171;28;1260;-67
2020/12/30 13:00:43;;;;;;;;;;;22.20;51.80;;;;;;5052026;28;1344;-66
2020/12/30 13:03:09;;;;;;;;;;;22.20;51.90;;;;;;5052427;28;1441;-67
2020/12/30 13:05:34;;;;;;;;;;;22.20;51.90;;;;;;5051721;28;1428;-67
2020/12/30 13:08:00;;;;;;;;;;;22.20;51.90;;;;;;5034111;28;1343;-67
2020/12/30 13:10:25;;;;;;;;;;;22.20;52.00;;;;;;5034328;28;1534;-67
2020/12/30 13:12:51;;;;;;;;;;;22.10;52.00;;;;;;5052546;28;1906;-67
2020/12/30 13:15:16;;;;;;;;;;;22.10;52.00;;;;;;5051935;28;1384;-67
2020/12/30 13:17:41;;;;;;;;;;;22.10;52.00;;;;;;5054729;28;1367;-67
2020/12/30 13:20:07;;;;;;;;;;;22.10;52.10;;;;;;5056493;28;1304;-65
2020/12/30 13:22:32;;;;;;;;;;;22.10;52.10;;;;;;5056005;28;1296;-64
2020/12/30 13:24:58;;;;;;;;;;;22.10;52.20;;;;;;5055957;28;1302;-64
2020/12/30 13:27:23;;;;;;;;;;;22.00;52.20;;;;;;5055253;28;1299;-65
2020/12/30 13:29:51;;;;;;;;;;;22.00;52.20;;;;;;5056066;28;1272;-66
2020/12/30 13:32:16;;;;;;;;;;;22.00;52.30;;;;;;5037140;28;1902;-64
2020/12/30 13:34:41;;;;;;;;;;;22.00;52.30;;;;;;5037905;28;1109;-64
2020/12/30 13:37:07;;;;;;;;;;;22.00;52.40;;;;;;5037600;28;1293;-67
2020/12/30 13:39:32;;;;;;;;;;;21.90;52.30;;;;;;5055568;28;1108;-65
2020/12/30 13:41:58;;;;;;;;;;;21.90;52.40;;;;;;5055627;28;1279;-65
2020/12/30 13:44:23;;;;;;;;;;;21.90;52.40;;;;;;5037738;28;1367;-65
2020/12/30 13:46:49;;;;;;;;;;;21.90;52.50;;;;;;5055983;28;1282;-66
2020/12/30 13:49:15;;;;;;;;;;;21.90;52.50;;;;;;5037746;28;1112;-65
2020/12/30 13:51:40;;;;;;;;;;;21.90;52.50;;;;;;5055350;28;1943;-64
2020/12/30 13:54:06;;;;;;;;;;;21.80;52.50;;;;;;5055056;28;1328;-65
2020/12/30 13:56:31;;;;;;;;;;;21.80;52.50;;;;;;5055310;28;1215;-65
2020/12/30 13:58:57;;;;;;;;;;;21.90;52.60;;;;;;5055494;28;1135;-65
2020/12/30 14:01:22;;;;;;;;;;;21.80;52.60;;;;;;5037521;28;1323;-67
2020/12/30 14:03:48;;;;;;;;;;;21.80;52.70;;;;;;5036692;28;1152;-66
2020/12/30 14:06:20;;;;;;;;;;;21.80;52.70;;;;;;5037195;28;1392;-65
2020/12/30 14:08:46;;;;;;;;;;;21.80;52.70;;;;;;5020997;28;1391;-66
2020/12/30 14:11:11;;;;;;;;;;;21.80;52.70;;;;;;5054861;28;1131;-65
2020/12/30 14:13:37;;;;;;;;;;;21.70;52.70;;;;;;5055388;28;1906;-65
2020/12/30 14:16:03;;;;;;;;;;;21.80;52.80;;;;;;5054653;28;1247;-65
2020/12/30 14:18:29;;;;;;;;;;;21.70;52.80;;;;;;5055097;28;1310;-66
2020/12/30 14:20:54;;;;;;;;;;;21.80;52.90;;;;;;5055264;28;1357;-65
2020/12/30 14:23:20;;;;;;;;;;;21.70;52.90;;;;;;5054582;28;1304;-68
2020/12/30 14:25:45;;;;;;;;;;;21.70;52.90;;;;;;5055098;28;1359;-68
2020/12/30 14:28:11;;;;;;;;;;;21.70;52.90;;;;;;5054807;28;1358;-65